createdAt,value
2016-04-25T00:00:54.344Z,94.23
2016-04-25T00:01:54.314Z,94.32
2016-04-25T00:02:54.285Z,94.42
2016-04-25T00:03:54.257Z,94.51
2016-04-25T00:04:54.230Z,94.42
2016-04-25T00:05:54.200Z,94.13
2016-04-25T00:06:54.171Z,94.32
2016-04-25T00:07:54.143Z,94.51
2016-04-25T00:08:54.098Z,93.84
2016-04-25T00:09:54.071Z,94.04
2016-04-25T00:10:54.043Z,93.75
2016-04-25T00:11:54.013Z,94.23
2016-04-25T00:12:53.984Z,94.42
2016-04-25T00:13:53.956Z,94.23
2016-04-25T00:14:53.928Z,94.51
2016-04-25T00:15:53.899Z,94.51
2016-04-25T00:16:53.871Z,94.32
2016-04-25T00:17:53.826Z,94.23
2016-04-25T00:18:53.797Z,94.23
2016-04-25T00:19:53.769Z,94.13
2016-04-25T00:20:53.741Z,94.04
2016-04-25T00:21:53.710Z,94.23
2016-04-25T00:22:53.686Z,94.32
2016-04-25T00:23:53.642Z,94.23
2016-04-25T00:24:53.614Z,94.04
2016-04-25T00:25:53.585Z,94.32
2016-04-25T00:26:53.931Z,94.23
2016-04-25T00:27:53.528Z,94.51
2016-04-25T00:28:53.500Z,94.23
2016-04-25T00:29:53.470Z,94.42
2016-04-25T00:30:53.443Z,94.32
2016-04-25T00:31:53.414Z,94.23
2016-04-25T00:32:53.386Z,94.42
2016-04-25T00:33:53.357Z,94.23
2016-04-25T00:34:53.312Z,94.23
2016-04-25T00:35:53.284Z,94.32
2016-04-25T00:36:53.255Z,94.23
2016-04-25T00:37:53.228Z,94.23
2016-04-25T00:38:53.198Z,94.13
2016-04-25T00:39:53.170Z,94.42
2016-04-25T00:40:53.141Z,94.51
2016-04-25T00:41:53.097Z,94.23
2016-04-25T00:42:53.083Z,94.04
2016-04-25T00:43:53.041Z,94.13
2016-04-25T00:44:53.011Z,94.51
2016-04-25T00:45:52.983Z,94.32
2016-04-25T00:46:52.954Z,94.51
2016-04-25T00:47:52.927Z,94.6
2016-04-25T00:48:52.897Z,94.6
2016-04-25T00:49:52.853Z,94.7
2016-04-25T00:50:52.824Z,94.51
2016-04-25T00:51:52.796Z,94.6
2016-04-25T00:52:52.767Z,94.23
2016-04-25T00:53:52.739Z,94.6
2016-04-25T00:54:52.710Z,94.51
2016-04-25T00:55:52.682Z,94.51
2016-04-25T00:56:52.637Z,94.42
2016-04-25T00:57:52.610Z,94.32
2016-04-25T00:58:52.596Z,94.32
2016-04-25T00:59:52.552Z,94.13
2016-04-25T01:00:52.523Z,94.6
2016-04-25T01:01:52.494Z,94.32
2016-04-25T01:02:52.466Z,94.7
2016-04-25T01:03:52.438Z,94.23
2016-04-25T01:04:52.409Z,93.94
2016-04-25T01:05:52.381Z,94.32
2016-04-25T01:06:52.336Z,94.51
2016-04-25T01:07:52.308Z,94.42
2016-04-25T01:08:52.279Z,94.23
2016-04-25T01:09:52.251Z,94.32
2016-04-25T01:10:52.222Z,94.51
2016-04-25T01:11:52.193Z,94.13
2016-04-25T01:12:52.164Z,94.32
2016-04-25T01:13:52.136Z,94.13
2016-04-25T01:14:52.108Z,94.13
2016-04-25T01:15:52.063Z,94.04
2016-04-25T01:16:52.035Z,94.32
2016-04-25T01:17:52.007Z,94.51
2016-04-25T01:18:51.978Z,94.13
2016-04-25T01:19:51.949Z,94.23
2016-04-25T01:20:51.921Z,94.13
2016-04-25T01:21:51.892Z,94.32
2016-04-25T01:22:51.849Z,94.51
2016-04-25T01:23:51.819Z,94.6
2016-04-25T01:24:51.790Z,94.79
2016-04-25T01:25:51.762Z,94.98
2016-04-25T01:26:51.734Z,94.89
2016-04-25T01:27:51.784Z,95.55
2016-04-25T01:28:51.677Z,95.36
2016-04-25T01:29:51.648Z,94.98
2016-04-25T01:30:51.620Z,95.26
2016-04-25T01:31:51.576Z,95.55
2016-04-25T01:32:51.547Z,94.98
2016-04-25T01:33:51.518Z,95.55
2016-04-25T01:34:51.490Z,95.55
2016-04-25T01:35:51.461Z,95.55
2016-04-25T01:36:51.433Z,95.55
2016-04-25T01:37:51.404Z,95.64
2016-04-25T01:38:51.375Z,95.55
2016-04-25T01:39:51.347Z,95.55
2016-04-25T01:40:51.319Z,95.17
2016-04-25T01:41:51.275Z,95.55
2016-04-25T01:42:51.261Z,95.36
2016-04-25T01:43:51.216Z,95.36
2016-04-25T01:44:51.188Z,95.36
2016-04-25T01:45:51.160Z,95.83
2016-04-25T01:46:51.131Z,95.55
2016-04-25T01:47:51.103Z,95.17
2016-04-25T01:48:51.074Z,95.17
2016-04-25T01:49:51.046Z,95.45
2016-04-25T01:50:51.002Z,95.36
2016-04-25T01:51:50.973Z,95.36
2016-04-25T01:52:50.944Z,95.64
2016-04-25T01:53:50.916Z,95.45
2016-04-25T01:54:50.888Z,95.55
2016-04-25T01:55:50.859Z,95.64
2016-04-25T01:56:50.830Z,95.45
2016-04-25T01:57:50.801Z,95.55
2016-04-25T01:58:50.773Z,95.64
2016-04-25T01:59:50.745Z,95.64
2016-04-25T02:00:50.700Z,95.45
2016-04-25T02:01:50.672Z,95.55
2016-04-25T02:02:50.643Z,95.45
2016-04-25T02:03:50.615Z,95.55
2016-04-25T02:04:50.586Z,94.79
2016-04-25T02:05:50.573Z,94.7
2016-04-25T02:06:50.529Z,94.79
2016-04-25T02:07:50.501Z,94.98
2016-04-25T02:08:50.472Z,94.79
2016-04-25T02:09:50.428Z,95.17
2016-04-25T02:10:50.399Z,95.36
2016-04-25T02:11:50.371Z,95.45
2016-04-25T02:12:50.342Z,95.45
2016-04-25T02:13:50.313Z,95.17
2016-04-25T02:14:50.285Z,95.26
2016-04-25T02:15:50.256Z,95.36
2016-04-25T02:16:50.228Z,95.45
2016-04-25T02:17:50.199Z,95.36
2016-04-25T02:18:50.155Z,95.55
2016-04-25T02:19:50.126Z,95.64
2016-04-25T02:20:50.097Z,95.64
2016-04-25T02:21:50.070Z,95.45
2016-04-25T02:22:50.041Z,95.55
2016-04-25T02:23:50.012Z,95.55
2016-04-25T02:24:49.983Z,95.36
2016-04-25T02:25:49.954Z,95.45
2016-04-25T02:26:49.927Z,95.26
2016-04-25T02:27:49.899Z,95.26
2016-04-25T02:28:49.868Z,95.07
2016-04-25T02:29:49.841Z,95.17
2016-04-25T02:30:49.812Z,95.83
2016-04-25T02:31:49.768Z,95.74
2016-04-25T02:32:49.740Z,95.93
2016-04-25T02:33:49.712Z,95.93
2016-04-25T02:34:49.683Z,95.83
2016-04-25T02:35:49.654Z,95.83
2016-04-25T02:36:49.625Z,95.74
2016-04-25T02:37:49.597Z,95.83
2016-04-25T02:38:49.567Z,95.83
2016-04-25T02:39:49.523Z,95.64
2016-04-25T02:40:49.496Z,95.74
2016-04-25T02:41:49.467Z,95.74
2016-04-25T02:42:49.454Z,95.93
2016-04-25T02:43:49.409Z,95.93
2016-04-25T02:44:49.381Z,95.93
2016-04-25T02:45:49.353Z,95.93
2016-04-25T02:46:49.325Z,95.83
2016-04-25T02:47:49.295Z,95.64
2016-04-25T02:48:49.267Z,95.74
2016-04-25T02:49:49.239Z,96.17
2016-04-25T02:50:49.210Z,95.64
2016-04-25T02:51:49.181Z,95.88
2016-04-25T02:52:49.138Z,95.88
2016-04-25T02:53:49.108Z,95.98
2016-04-25T02:54:49.080Z,95.98
2016-04-25T02:55:49.051Z,95.83
2016-04-25T02:56:49.024Z,95.83
2016-04-25T02:57:48.994Z,95.79
2016-04-25T02:58:48.966Z,95.79
2016-04-25T02:59:48.938Z,95.22
2016-04-25T03:00:48.909Z,95.55
2016-04-25T03:01:48.880Z,95.41
2016-04-25T03:02:48.851Z,95.12
2016-04-25T03:03:48.808Z,95.26
2016-04-25T03:04:48.779Z,95.45
2016-04-25T03:05:48.750Z,94.98
2016-04-25T03:06:48.722Z,95.55
2016-04-25T03:07:48.693Z,95.36
2016-04-25T03:08:48.664Z,95.5
2016-04-25T03:09:48.636Z,95.07
2016-04-25T03:10:48.607Z,95.17
2016-04-25T03:11:48.579Z,95.55
2016-04-25T03:12:48.550Z,95.55
2016-04-25T03:13:48.522Z,95.55
2016-04-25T03:14:48.493Z,95.26
2016-04-25T03:15:48.449Z,95.74
2016-04-25T03:16:48.420Z,95.74
2016-04-25T03:17:48.392Z,95.74
2016-04-25T03:18:48.363Z,95.88
2016-04-25T03:19:48.336Z,95.93
2016-04-25T03:20:48.306Z,95.98
2016-04-25T03:21:48.277Z,96.07
2016-04-25T03:22:48.249Z,95.93
2016-04-25T03:23:48.221Z,95.98
2016-04-25T03:24:48.191Z,95.55
2016-04-25T03:25:48.163Z,95.88
2016-04-25T03:26:48.135Z,95.88
2016-04-25T03:27:48.107Z,95.79
2016-04-25T03:28:48.062Z,95.98
2016-04-25T03:29:48.065Z,95.22
2016-04-25T03:30:48.004Z,95.45
2016-04-25T03:31:47.976Z,95.03
2016-04-25T03:32:47.949Z,95.03
2016-04-25T03:33:47.918Z,95.36
2016-04-25T03:34:47.891Z,95.5
2016-04-25T03:35:47.862Z,95.17
2016-04-25T03:36:47.834Z,95.45
2016-04-25T03:37:47.805Z,95.55
2016-04-25T03:38:47.776Z,95.55
2016-04-25T03:39:47.748Z,95.45
2016-04-25T03:40:47.703Z,95.07
2016-04-25T03:41:47.675Z,95.26
2016-04-25T03:42:47.647Z,95.45
2016-04-25T03:43:47.665Z,95.64
2016-04-25T03:44:47.589Z,95.36
2016-04-25T03:45:47.561Z,95.55
2016-04-25T03:46:47.533Z,94.89
2016-04-25T03:47:47.504Z,95.64
2016-04-25T03:48:47.475Z,95.45
2016-04-25T03:49:47.447Z,95.64
2016-04-25T03:50:47.419Z,95.45
2016-04-25T03:51:47.374Z,95.17
2016-04-25T03:52:47.345Z,95.45
2016-04-25T03:53:47.317Z,94.98
2016-04-25T03:54:47.288Z,95.36
2016-04-25T03:55:47.260Z,94.98
2016-04-25T03:56:47.231Z,95.45
2016-04-25T03:57:47.484Z,95.45
2016-04-25T03:58:47.174Z,95.45
2016-04-25T03:59:47.145Z,95.55
2016-04-25T04:00:47.116Z,95.45
2016-04-25T04:01:47.089Z,95.07
2016-04-25T04:02:47.044Z,95.45
2016-04-25T04:03:47.015Z,94.98
2016-04-25T04:04:46.987Z,95.17
2016-04-25T04:05:46.959Z,95.26
2016-04-25T04:06:46.930Z,95.45
2016-04-25T04:07:46.901Z,95.17
2016-04-25T04:08:46.873Z,95.17
2016-04-25T04:09:46.845Z,95.17
2016-04-25T04:10:46.816Z,95.45
2016-04-25T04:11:46.787Z,95.55
2016-04-25T04:12:46.758Z,95.74
2016-04-25T04:13:46.714Z,95.17
2016-04-25T04:14:46.687Z,95.93
2016-04-25T04:15:46.657Z,95.83
2016-04-25T04:16:46.629Z,96.07
2016-04-25T04:17:46.600Z,95.93
2016-04-25T04:18:46.572Z,95.6
2016-04-25T04:19:46.543Z,95.79
2016-04-25T04:20:46.514Z,95.74
2016-04-25T04:21:46.487Z,95.88
2016-04-25T04:22:46.458Z,95.98
2016-04-25T04:23:46.429Z,95.93
2016-04-25T04:24:46.400Z,95.88
2016-04-25T04:25:46.356Z,96.07
2016-04-25T04:26:46.327Z,95.88
2016-04-25T04:27:46.300Z,95.69
2016-04-25T04:28:46.271Z,95.88
2016-04-25T04:29:46.242Z,95.98
2016-04-25T04:30:46.213Z,95.98
2016-04-25T04:31:46.185Z,95.69
2016-04-25T04:32:46.156Z,95.88
2016-04-25T04:33:46.128Z,96.36
2016-04-25T04:34:46.099Z,96.36
2016-04-25T04:35:46.102Z,96.36
2016-04-25T04:36:46.042Z,96.36
2016-04-25T04:37:46.013Z,96.36
2016-04-25T04:38:45.985Z,96.36
2016-04-25T04:39:45.956Z,96.36
2016-04-25T04:40:45.959Z,95.69
2016-04-25T04:41:45.884Z,95.98
2016-04-25T04:42:46.965Z,95.69
2016-04-25T04:43:45.826Z,96.64
2016-04-25T04:44:45.798Z,95.5
2016-04-25T04:45:45.769Z,95.5
2016-04-25T04:46:45.741Z,95.69
2016-04-25T04:47:45.712Z,95.79
2016-04-25T04:48:45.684Z,95.88
2016-04-25T04:49:45.655Z,95.88
2016-04-25T04:50:45.642Z,95.69
2016-04-25T04:51:45.598Z,95.88
2016-04-25T04:52:45.586Z,95.88
2016-04-25T04:53:45.541Z,95.79
2016-04-25T04:54:45.512Z,95.22
2016-04-25T04:55:45.483Z,95.31
2016-04-25T04:56:45.455Z,95.22
2016-04-25T04:57:45.427Z,95.79
2016-04-25T04:58:45.397Z,95.41
2016-04-25T04:59:45.369Z,95.6
2016-04-25T05:00:45.341Z,95.6
2016-04-25T05:01:45.313Z,95.5
2016-04-25T05:02:45.268Z,95.6
2016-04-25T05:03:45.240Z,95.6
2016-04-25T05:04:45.211Z,95.41
2016-04-25T05:05:45.183Z,95.41
2016-04-25T05:06:45.154Z,95.6
2016-04-25T05:07:45.126Z,95.79
2016-04-25T05:08:45.096Z,95.6
2016-04-25T05:09:45.068Z,95.6
2016-04-25T05:10:45.040Z,95.6
2016-04-25T05:11:45.012Z,95.6
2016-04-25T05:12:45.018Z,95.31
2016-04-25T05:13:45.033Z,95.41
2016-04-25T05:14:45.065Z,95.12
2016-04-25T05:15:45.065Z,95.22
2016-04-25T05:16:45.174Z,95.22
2016-04-25T05:17:45.073Z,95.6
2016-04-25T05:18:45.076Z,95.5
2016-04-25T05:19:45.048Z,95.6
2016-04-25T05:20:45.035Z,95.69
2016-04-25T05:21:45.116Z,95.69
2016-04-25T05:22:45.001Z,95.6
2016-04-25T05:23:44.979Z,95.07
2016-04-25T05:24:44.956Z,95.07
2016-04-25T05:25:44.949Z,95.55
2016-04-25T05:26:44.910Z,95.74
2016-04-25T05:27:44.884Z,95.45
2016-04-25T05:28:44.857Z,95.65
2016-04-25T05:29:44.846Z,95.65
2016-04-25T05:30:44.805Z,95.26
2016-04-25T05:31:44.778Z,95.17
2016-04-25T05:32:44.749Z,95.36
2016-04-25T05:33:44.722Z,95.55
2016-04-25T05:34:44.709Z,95.26
2016-04-25T05:35:44.667Z,95.55
2016-04-25T05:36:44.638Z,95.45
2016-04-25T05:37:44.611Z,95.74
2016-04-25T05:38:44.582Z,95.45
2016-04-25T05:39:44.555Z,95.55
2016-04-25T05:40:44.526Z,95.36
2016-04-25T05:41:44.514Z,95.26
2016-04-25T05:42:44.484Z,95.6
2016-04-25T05:43:44.457Z,95.69
2016-04-25T05:44:44.428Z,95.03
2016-04-25T05:45:44.414Z,95.31
2016-04-25T05:46:44.370Z,95.31
2016-04-25T05:47:44.342Z,95.22
2016-04-25T05:48:44.314Z,94.93
2016-04-25T05:49:44.301Z,94.93
2016-04-25T05:50:44.256Z,95.22
2016-04-25T05:51:44.227Z,95.03
2016-04-25T05:52:44.216Z,94.84
2016-04-25T05:53:44.186Z,94.27
2016-04-25T05:54:44.157Z,94.18
2016-04-25T05:55:44.130Z,94.46
2016-04-25T05:56:44.101Z,94.46
2016-04-25T05:57:44.072Z,94.27
2016-04-25T05:58:45.075Z,94.18
2016-04-25T05:59:44.015Z,93.61
2016-04-25T06:00:43.987Z,93.7
2016-04-25T06:01:43.957Z,93.61
2016-04-25T06:02:43.946Z,93.75
2016-04-25T06:03:43.901Z,93.89
2016-04-25T06:04:43.887Z,93.7
2016-04-25T06:05:43.860Z,94.04
2016-04-25T06:06:43.831Z,93.65
2016-04-25T06:07:43.802Z,94.08
2016-04-25T06:08:43.774Z,94.6
2016-04-25T06:09:43.745Z,94.27
2016-04-25T06:10:43.717Z,94.65
2016-04-25T06:11:43.687Z,94.27
2016-04-25T06:12:43.675Z,95.03
2016-04-25T06:13:43.647Z,94.93
2016-04-25T06:14:43.618Z,94.74
2016-04-25T06:15:43.589Z,94.37
2016-04-25T06:16:43.561Z,94.37
2016-04-25T06:17:43.533Z,94.56
2016-04-25T06:18:43.503Z,94.56
2016-04-25T06:19:43.475Z,94.56
2016-04-25T06:20:43.447Z,94.18
2016-04-25T06:21:43.433Z,94.27
2016-04-25T06:22:43.406Z,93.89
2016-04-25T06:23:43.378Z,94.08
2016-04-25T06:24:43.348Z,94.27
2016-04-25T06:25:43.351Z,94.46
2016-04-25T06:26:43.292Z,94.46
2016-04-25T06:27:43.264Z,93.89
2016-04-25T06:28:43.266Z,93.8
2016-04-25T06:29:43.222Z,93.46
2016-04-25T06:30:43.194Z,92.99
2016-04-25T06:31:43.164Z,93.46
2016-04-25T06:32:43.136Z,93.65
2016-04-25T06:33:43.123Z,93.65
2016-04-25T06:34:43.094Z,93.94
2016-04-25T06:35:43.067Z,93.65
2016-04-25T06:36:43.038Z,93.18
2016-04-25T06:37:43.008Z,93.37
2016-04-25T06:38:42.997Z,92.8
2016-04-25T06:39:42.967Z,92.61
2016-04-25T06:40:42.939Z,92.52
2016-04-25T06:41:42.910Z,92.42
2016-04-25T06:42:42.897Z,92.52
2016-04-25T06:43:42.884Z,92.61
2016-04-25T06:44:42.841Z,92.52
2016-04-25T06:45:42.827Z,92.47
2016-04-25T06:46:42.799Z,92.85
2016-04-25T06:47:42.770Z,92.94
2016-04-25T06:48:42.743Z,92.75
2016-04-25T06:49:42.712Z,92.75
2016-04-25T06:50:42.701Z,92.75
2016-04-25T06:51:42.671Z,92.37
2016-04-25T06:52:42.659Z,93.23
2016-04-25T06:53:42.630Z,92.66
2016-04-25T06:54:42.618Z,92.75
2016-04-25T06:55:42.573Z,91.8
2016-04-25T06:56:42.560Z,91.52
2016-04-25T06:57:42.531Z,91.33
2016-04-25T06:58:42.503Z,91.33
2016-04-25T06:59:42.506Z,91.42
2016-04-25T07:00:42.462Z,91.33
2016-04-25T07:01:42.433Z,91.52
2016-04-25T07:02:42.419Z,91.52
2016-04-25T07:03:42.391Z,91.56
2016-04-25T07:04:42.363Z,91.56
2016-04-25T07:05:42.350Z,90.99
2016-04-25T07:06:42.322Z,90.23
2016-04-25T07:07:42.308Z,90.9
2016-04-25T07:08:42.280Z,90.9
2016-04-25T07:09:42.252Z,90.71
2016-04-25T07:10:42.222Z,90.71
2016-04-25T07:11:42.210Z,90.71
2016-04-25T07:12:42.182Z,90.14
2016-04-25T07:13:42.199Z,90.71
2016-04-25T07:14:42.140Z,90.71
2016-04-25T07:15:42.111Z,90.42
2016-04-25T07:16:42.098Z,90.71
2016-04-25T07:17:42.070Z,90.14
2016-04-25T07:18:42.057Z,90.33
2016-04-25T07:19:42.029Z,89.86
2016-04-25T07:20:41.999Z,89.67
2016-04-25T07:21:41.987Z,90.05
2016-04-25T07:22:41.958Z,89.95
2016-04-25T07:23:41.929Z,89.67
2016-04-25T07:24:41.917Z,90.09
2016-04-25T07:25:41.888Z,89.42
2016-04-25T07:26:41.875Z,89.42
2016-04-25T07:27:41.847Z,89.61
2016-04-25T07:28:41.834Z,89.71
2016-04-25T07:29:41.805Z,89.71
2016-04-25T07:30:41.792Z,89.71
2016-04-25T07:31:41.764Z,89.71
2016-04-25T07:32:41.751Z,89.42
2016-04-25T07:33:41.722Z,89.71
2016-04-25T07:34:41.709Z,88.9
2016-04-25T07:35:41.681Z,88.23
2016-04-25T07:36:41.667Z,87.85
2016-04-25T07:37:41.639Z,88.33
2016-04-25T07:38:41.626Z,88.28
2016-04-25T07:39:41.598Z,87.95
2016-04-25T07:40:41.585Z,88.23
2016-04-25T07:41:41.556Z,88.23
2016-04-25T07:42:41.543Z,87.57
2016-04-25T07:43:41.515Z,87.66
2016-04-25T07:44:41.501Z,87.28
2016-04-25T07:45:41.474Z,86.43
2016-04-25T07:46:41.460Z,86.14
2016-04-25T07:47:41.432Z,86.76
2016-04-25T07:48:41.403Z,86.71
2016-04-25T07:49:41.390Z,87.24
2016-04-25T07:50:41.362Z,86.9
2016-04-25T07:51:41.348Z,87.09
2016-04-25T07:52:41.321Z,86.9
2016-04-25T07:53:41.307Z,86.47
2016-04-25T07:54:41.279Z,86.47
2016-04-25T07:55:41.251Z,87.52
2016-04-25T07:56:41.237Z,87.28
2016-04-25T07:57:41.208Z,87.76
2016-04-25T07:58:41.196Z,87.47
2016-04-25T07:59:41.167Z,87.47
2016-04-25T08:00:41.154Z,88.23
2016-04-25T08:01:41.126Z,87.66
2016-04-25T08:02:41.112Z,87.66
2016-04-25T08:03:41.084Z,87.66
2016-04-25T08:04:41.056Z,88.04
2016-04-25T08:05:41.042Z,88.23
2016-04-25T08:06:41.014Z,87.38
2016-04-25T08:07:41.001Z,87.38
2016-04-25T08:08:40.972Z,87.09
2016-04-25T08:09:40.944Z,86.8
2016-04-25T08:10:40.931Z,86.61
2016-04-25T08:11:40.903Z,86.76
2016-04-25T08:12:40.883Z,87.09
2016-04-25T08:13:40.854Z,87.19
2016-04-25T08:14:40.842Z,87.76
2016-04-25T08:15:40.828Z,87.28
2016-04-25T08:16:40.799Z,86.99
2016-04-25T08:17:40.772Z,87.14
2016-04-25T08:18:40.742Z,87.66
2016-04-25T08:19:40.730Z,87.66
2016-04-25T08:20:40.701Z,87.19
2016-04-25T08:21:40.688Z,86.95
2016-04-25T08:22:40.661Z,87.71
2016-04-25T08:23:40.632Z,87.85
2016-04-25T08:24:40.619Z,88.33
2016-04-25T08:25:40.590Z,89
2016-04-25T08:26:40.562Z,88.33
2016-04-25T08:27:40.549Z,87.57
2016-04-25T08:28:40.520Z,87.66
2016-04-25T08:29:41.117Z,86.9
2016-04-25T08:30:40.495Z,85.95
2016-04-25T08:31:40.466Z,85.47
2016-04-25T08:32:40.438Z,85
2016-04-25T08:33:40.408Z,84.91
2016-04-25T08:34:40.397Z,85.28
2016-04-25T08:35:40.367Z,85.76
2016-04-25T08:36:40.355Z,86.24
2016-04-25T08:37:40.326Z,86.33
2016-04-25T08:38:40.313Z,86.61
2016-04-25T08:39:40.300Z,86.61
2016-04-25T08:40:40.260Z,86.61
2016-04-25T08:41:40.248Z,87.09
2016-04-25T08:42:40.219Z,86.38
2016-04-25T08:43:40.221Z,85.9
2016-04-25T08:44:40.179Z,86.09
2016-04-25T08:45:40.165Z,86.66
2016-04-25T08:46:40.137Z,86.09
2016-04-25T08:47:40.107Z,86.76
2016-04-25T08:48:40.095Z,86.47
2016-04-25T08:49:40.067Z,86.38
2016-04-25T08:50:40.053Z,86.09
2016-04-25T08:51:40.025Z,86.28
2016-04-25T08:52:40.012Z,87.04
2016-04-25T08:53:39.983Z,86.85
2016-04-25T08:54:39.955Z,87.13
2016-04-25T08:55:39.958Z,87.13
2016-04-25T08:56:39.913Z,86.09
2016-04-25T08:57:39.900Z,86.57
2016-04-25T08:58:39.887Z,86.09
2016-04-25T08:59:39.859Z,85.42
2016-04-25T09:00:39.830Z,85.04
2016-04-25T09:01:39.833Z,84.47
2016-04-25T09:02:39.788Z,84.47
2016-04-25T09:03:39.760Z,85.33
2016-04-25T09:04:39.747Z,85.42
2016-04-25T09:05:39.719Z,84.66
2016-04-25T09:06:39.705Z,83.62
2016-04-25T09:07:39.677Z,84
2016-04-25T09:08:39.664Z,84.19
2016-04-25T09:09:39.636Z,84.09
2016-04-25T09:10:39.623Z,84
2016-04-25T09:11:39.594Z,83.71
2016-04-25T09:12:39.565Z,81.81
2016-04-25T09:13:39.552Z,81.43
2016-04-25T09:14:39.540Z,82.86
2016-04-25T09:15:39.511Z,83.33
2016-04-25T09:16:39.486Z,84.33
2016-04-25T09:17:39.474Z,83.85
2016-04-25T09:18:39.461Z,84.04
2016-04-25T09:19:39.432Z,83.85
2016-04-25T09:20:39.419Z,84.46
2016-04-25T09:21:39.407Z,83.89
2016-04-25T09:22:39.378Z,83.98
2016-04-25T09:23:39.365Z,83.7
2016-04-25T09:24:39.352Z,81.89
2016-04-25T09:25:39.338Z,82.6
2016-04-25T09:26:39.310Z,83.36
2016-04-25T09:27:39.313Z,83.36
2016-04-25T09:28:39.316Z,82.69
2016-04-25T09:29:39.787Z,83.5
2016-04-25T09:30:39.243Z,82.17
2016-04-25T09:31:39.229Z,81.59
2016-04-25T09:32:39.218Z,81.3
2016-04-25T09:33:39.204Z,81.46
2016-04-25T09:34:39.175Z,80.26
2016-04-25T09:35:39.162Z,80.88
2016-04-25T09:36:39.150Z,80.79
2016-04-25T09:37:39.121Z,80.79
2016-04-25T09:38:39.108Z,77.55
2016-04-25T09:39:39.095Z,78.59
2016-04-25T09:40:39.067Z,79.93
2016-04-25T09:41:39.053Z,80.16
2016-04-25T09:42:39.041Z,80.44
2016-04-25T09:43:39.012Z,80.64
2016-04-25T09:44:38.999Z,81.12
2016-04-25T09:45:38.986Z,81.21
2016-04-25T09:46:38.958Z,80.26
2016-04-25T09:47:38.945Z,80.64
2016-04-25T09:48:38.932Z,81.12
2016-04-25T09:49:38.903Z,79.88
2016-04-25T09:50:38.891Z,79.21
2016-04-25T09:51:38.877Z,79.93
2016-04-25T09:52:38.849Z,80.98
2016-04-25T09:53:38.835Z,81.21
2016-04-25T09:54:39.151Z,81.3
2016-04-25T09:55:38.794Z,81.78
2016-04-25T09:56:38.782Z,82.17
2016-04-25T09:57:38.753Z,81.78
2016-04-25T09:58:39.443Z,81.97
2016-04-25T09:59:38.727Z,81.78
2016-04-25T10:00:38.699Z,81.21
2016-04-25T10:01:38.685Z,80.07
2016-04-25T10:02:38.657Z,80.07
2016-04-25T10:03:38.644Z,79.97
2016-04-25T10:04:38.615Z,80.64
2016-04-25T10:05:38.603Z,81.36
2016-04-25T10:06:38.590Z,82.12
2016-04-25T10:07:38.561Z,81.4
2016-04-25T10:08:38.548Z,78.64
2016-04-25T10:09:38.520Z,79.07
2016-04-25T10:10:38.507Z,79.83
2016-04-25T10:11:38.494Z,79.36
2016-04-25T10:12:38.464Z,79.55
2016-04-25T10:13:38.453Z,80.41
2016-04-25T10:14:38.643Z,80.41
2016-04-25T10:15:38.411Z,81.17
2016-04-25T10:16:38.398Z,81.93
2016-04-25T10:17:38.369Z,82.89
2016-04-25T10:18:38.341Z,81.93
2016-04-25T10:19:38.328Z,81.26
2016-04-25T10:20:38.316Z,80.41
2016-04-25T10:21:38.286Z,81.55
2016-04-25T10:22:38.304Z,82.31
2016-04-25T10:23:38.244Z,83.55
2016-04-25T10:24:38.232Z,83.59
2016-04-25T10:25:38.204Z,83.88
2016-04-25T10:26:38.191Z,83.97
2016-04-25T10:27:38.162Z,83.97
2016-04-25T10:28:38.165Z,83.5
2016-04-25T10:29:38.199Z,81.59
2016-04-25T10:30:38.108Z,77.69
2016-04-25T10:31:38.100Z,77.36
2016-04-25T10:32:38.071Z,78.98
2016-04-25T10:33:38.043Z,79.46
2016-04-25T10:34:38.021Z,79.36
2016-04-25T10:35:38.012Z,77.93
2016-04-25T10:36:37.983Z,79.55
2016-04-25T10:37:37.970Z,80.5
2016-04-25T10:38:37.957Z,78.88
2016-04-25T10:39:37.929Z,79.17
2016-04-25T10:40:37.916Z,79.36
2016-04-25T10:41:37.887Z,79.93
2016-04-25T10:42:37.858Z,79.74
2016-04-25T10:43:38.408Z,78.59
2016-04-25T10:44:37.833Z,80.41
2016-04-25T10:45:37.804Z,80.79
2016-04-25T10:46:37.791Z,81.36
2016-04-25T10:47:37.763Z,82.69
2016-04-25T10:48:37.750Z,82.79
2016-04-25T10:49:37.722Z,81.49
2016-04-25T10:50:37.708Z,82.26
2016-04-25T10:51:37.680Z,82.54
2016-04-25T10:52:37.666Z,82.64
2016-04-25T10:53:37.638Z,80.26
2016-04-25T10:54:37.624Z,79.11
2016-04-25T10:55:37.597Z,78.5
2016-04-25T10:56:37.599Z,79.27
2016-04-25T10:57:37.571Z,79.55
2016-04-25T10:58:37.542Z,79.55
2016-04-25T10:59:37.530Z,79.64
2016-04-25T11:00:37.501Z,78.78
2016-04-25T11:01:37.488Z,78.88
2016-04-25T11:02:37.459Z,77.93
2016-04-25T11:03:37.446Z,77.17
2016-04-25T11:04:37.434Z,76.59
2016-04-25T11:05:37.404Z,78.22
2016-04-25T11:06:37.376Z,79.27
2016-04-25T11:07:37.363Z,80.69
2016-04-25T11:08:37.351Z,80.22
2016-04-25T11:09:37.322Z,76.82
2016-04-25T11:10:37.309Z,78.31
2016-04-25T11:11:37.281Z,79.49
2016-04-25T11:12:37.267Z,80.54
2016-04-25T11:13:37.238Z,79.3
2016-04-25T11:14:37.226Z,79.02
2016-04-25T11:15:37.213Z,79.88
2016-04-25T11:16:37.184Z,81.21
2016-04-25T11:17:37.172Z,81.59
2016-04-25T11:18:37.143Z,81.59
2016-04-25T11:19:37.130Z,81.3
2016-04-25T11:20:37.102Z,80.26
2016-04-25T11:21:37.089Z,80.35
2016-04-25T11:22:37.060Z,79.4
2016-04-25T11:23:37.047Z,78.16
2016-04-25T11:24:37.033Z,77.59
2016-04-25T11:25:37.161Z,76.06
2016-04-25T11:26:36.993Z,75.87
2016-04-25T11:27:36.964Z,77.11
2016-04-25T11:28:36.952Z,77.78
2016-04-25T11:29:36.922Z,78.35
2016-04-25T11:30:36.910Z,78.92
2016-04-25T11:31:36.944Z,77.78
2016-04-25T11:32:36.868Z,78.25
2016-04-25T11:33:36.855Z,77.97
2016-04-25T11:34:36.826Z,75.3
2016-04-25T11:35:36.813Z,76.25
2016-04-25T11:36:36.785Z,77.01
2016-04-25T11:37:36.772Z,78.2
2016-04-25T11:38:36.759Z,78.3
2016-04-25T11:39:36.731Z,77.91
2016-04-25T11:40:36.717Z,78.58
2016-04-25T11:41:36.689Z,78.1
2016-04-25T11:42:36.676Z,77.06
2016-04-25T11:43:36.663Z,75.53
2016-04-25T11:44:36.650Z,73.96
2016-04-25T11:45:36.622Z,73.11
2016-04-25T11:46:36.609Z,72.82
2016-04-25T11:47:36.585Z,73.58
2016-04-25T11:48:36.561Z,74.16
2016-04-25T11:49:36.549Z,75.68
2016-04-25T11:50:36.520Z,75.87
2016-04-25T11:51:36.507Z,76.06
2016-04-25T11:52:36.494Z,75.2
2016-04-25T11:53:36.470Z,75.11
2016-04-25T11:54:36.442Z,76.06
2016-04-25T11:55:36.445Z,74.82
2016-04-25T11:56:36.416Z,73.58
2016-04-25T11:57:36.388Z,74.35
2016-04-25T11:58:36.374Z,74.63
2016-04-25T11:59:36.456Z,75.87
2016-04-25T12:00:36.411Z,75.96
2016-04-25T12:01:36.320Z,75.49
2016-04-25T12:02:36.292Z,75.68
2016-04-25T12:03:36.279Z,75.01
2016-04-25T12:04:36.250Z,76.06
2016-04-25T12:05:36.237Z,75.4
2016-04-25T12:06:36.208Z,74.35
2016-04-25T12:07:36.195Z,74.54
2016-04-25T12:08:36.183Z,74.73
2016-04-25T12:09:36.154Z,74.35
2016-04-25T12:10:36.125Z,69.45
2016-04-25T12:11:36.113Z,68.4
2016-04-25T12:12:36.084Z,70.97
2016-04-25T12:13:36.071Z,73.99
2016-04-25T12:14:36.058Z,75.42
2016-04-25T12:15:36.029Z,76.08
2016-04-25T12:16:36.001Z,77.03
2016-04-25T12:17:35.988Z,76.27
2016-04-25T12:18:35.960Z,75.89
2016-04-25T12:19:35.947Z,75.89
2016-04-25T12:20:35.918Z,75.89
2016-04-25T12:21:35.890Z,75.79
2016-04-25T12:22:35.877Z,77.17
2016-04-25T12:23:35.848Z,78.12
2016-04-25T12:24:35.835Z,74.31
2016-04-25T12:25:35.807Z,71.93
2016-04-25T12:26:35.791Z,73.65
2016-04-25T12:27:35.762Z,74.02
2016-04-25T12:28:35.749Z,75.36
2016-04-25T12:29:35.721Z,76.03
2016-04-25T12:30:35.708Z,73.74
2016-04-25T12:31:35.695Z,74.79
2016-04-25T12:32:35.667Z,75.16
2016-04-25T12:33:35.638Z,74.12
2016-04-25T12:34:35.625Z,74.79
2016-04-25T12:35:35.596Z,75.16
2016-04-25T12:36:35.583Z,74.6
2016-04-25T12:37:35.570Z,74.21
2016-04-25T12:38:35.542Z,73.77
2016-04-25T12:39:35.528Z,73.45
2016-04-25T12:40:35.500Z,74.63
2016-04-25T12:41:35.487Z,74.63
2016-04-25T12:42:35.459Z,75.3
2016-04-25T12:43:35.446Z,75.4
2016-04-25T12:44:35.511Z,73.01
2016-04-25T12:45:35.405Z,70.34
2016-04-25T12:46:35.375Z,69.96
2016-04-25T12:47:35.364Z,71.01
2016-04-25T12:48:35.335Z,71.01
2016-04-25T12:49:35.321Z,71.96
2016-04-25T12:50:35.294Z,72.06
2016-04-25T12:51:35.280Z,71.68
2016-04-25T12:52:35.266Z,70.92
2016-04-25T12:53:35.238Z,69.87
2016-04-25T12:54:35.226Z,70.25
2016-04-25T12:55:35.196Z,71.2